Genesee, Michigan
Current Conditions -  °F | °C
As of 4:01 PM on Friday 19 Dec 2014 (Local Time) from KFNT Reporting Station
Few Clouds Few Clouds  
Wind Chill: 32°   Ceiling: Unl
Heat Index: 32°   Visibility: 10mi
Dew Point: 20°   Wind: 3mph
Humidity: 61%   Direction: 250°WSW
Pressure: 30.26"   Gusts: NA
Location:  43.11°N, 83.62°W
Report Text: KFNT 192101Z 25003KT 10SM FEW026 00/M07 A3026 RMK AO2 T00001067
Loading
Personal Weather Stations






























Interactive Weather Map New forecast layout! Learn more

10-Day Weather Forecast

Advertisements
Track Severe Weather on mobile